WZZ8663 LBSF-LICA
Flight info
| Callsign | WZZ8663 |
|---|---|
| Flight time | 1h 19m |
| Altitude | 19000 |
| Route | NAPET T214 LETNI T262 ERANA/N0443F380 UT262 YNN UM600 KRK UL869 LATAN/N0443F370 DCT GEMVI/N0337F180 L869 CDC |
| Aircraft | A21N/M-SDE1E2E3FGIJ1J4RWXY/LB1 |
Departure
| Time | 2026-05-08 11:44 |
|---|---|
| Airport | Sofia Airport (LBSF) |
Arrival
| Time | 2026-05-08 13:03 |
|---|---|
| Airport | Lamezia Terme Sant'Eufemia International Airport (LICA) |
| Time | Latitude | Longitude | Altitude | Speed | Heading |
|---|---|---|---|---|---|
| 2026-05-08 11:23 | 42.69124 | 23.40091 | 1759 ft | 0 kts | 198° |
| 2026-05-08 11:34 | 42.69120 | 23.40089 | 1759 ft | 1 kts | 198° |
| 2026-05-08 11:35 | 42.69102 | 23.40081 | 1759 ft | 4 kts | 198° |
| 2026-05-08 11:35 | 42.69071 | 23.40093 | 1759 ft | 5 kts | 124° |
| 2026-05-08 11:35 | 42.69052 | 23.40161 | 1759 ft | 8 kts | 105° |
| 2026-05-08 11:35 | 42.69033 | 23.40254 | 1759 ft | 10 kts | 98° |
| 2026-05-08 11:36 | 42.69090 | 23.40320 | 1759 ft | 12 kts | 17° |
| 2026-05-08 11:36 | 42.69178 | 23.40356 | 1759 ft | 14 kts | 16° |
| 2026-05-08 11:36 | 42.69291 | 23.40401 | 1759 ft | 19 kts | 16° |
| 2026-05-08 11:36 | 42.69430 | 23.40457 | 1759 ft | 21 kts | 16° |
| 2026-05-08 11:37 | 42.69521 | 23.40502 | 1759 ft | 6 kts | 51° |
| 2026-05-08 11:37 | 42.69525 | 23.40565 | 1759 ft | 7 kts | 94° |
| 2026-05-08 11:37 | 42.69521 | 23.40638 | 1759 ft | 8 kts | 94° |
| 2026-05-08 11:37 | 42.69516 | 23.40722 | 1759 ft | 10 kts | 94° |
| 2026-05-08 11:38 | 42.69508 | 23.40839 | 1759 ft | 14 kts | 95° |
| 2026-05-08 11:38 | 42.69498 | 23.40998 | 1759 ft | 18 kts | 94° |
| 2026-05-08 11:38 | 42.69487 | 23.41188 | 1759 ft | 21 kts | 94° |
| 2026-05-08 11:38 | 42.69475 | 23.41408 | 1759 ft | 24 kts | 94° |
| 2026-05-08 11:39 | 42.69459 | 23.41650 | 1759 ft | 26 kts | 94° |
| 2026-05-08 11:39 | 42.69445 | 23.41897 | 1759 ft | 25 kts | 94° |
| 2026-05-08 11:39 | 42.69431 | 23.42127 | 1759 ft | 23 kts | 94° |
| 2026-05-08 11:39 | 42.69418 | 23.42349 | 1759 ft | 22 kts | 95° |
| 2026-05-08 11:40 | 42.69406 | 23.42557 | 1759 ft | 21 kts | 94° |
| 2026-05-08 11:40 | 42.69394 | 23.42757 | 1758 ft | 20 kts | 94° |
| 2026-05-08 11:40 | 42.69382 | 23.42947 | 1759 ft | 19 kts | 94° |
| 2026-05-08 11:40 | 42.69371 | 23.43135 | 1759 ft | 20 kts | 95° |
| 2026-05-08 11:41 | 42.69360 | 23.43328 | 1758 ft | 21 kts | 94° |
| 2026-05-08 11:41 | 42.69348 | 23.43533 | 1759 ft | 21 kts | 94° |
| 2026-05-08 11:41 | 42.69336 | 23.43738 | 1758 ft | 17 kts | 94° |
| 2026-05-08 11:41 | 42.69333 | 23.43894 | 1758 ft | 15 kts | 76° |
| 2026-05-08 11:42 | 42.69369 | 23.43942 | 1758 ft | 4 kts | 14° |
| 2026-05-08 11:42 | 42.69427 | 23.43950 | 1758 ft | 15 kts | 4° |
| 2026-05-08 11:42 | 42.69503 | 23.43949 | 1758 ft | 6 kts | 324° |
| 2026-05-08 11:42 | 42.69514 | 23.43887 | 1758 ft | 7 kts | 278° |
| 2026-05-08 11:43 | 42.69530 | 23.43651 | 1758 ft | 58 kts | 275° |
| 2026-05-08 11:43 | 42.69583 | 23.42781 | 1759 ft | 123 kts | 274° |
| 2026-05-08 11:43 | 42.69665 | 23.41381 | 1763 ft | 173 kts | 274° |
| 2026-05-08 11:43 | 42.69776 | 23.39638 | 2042 ft | 191 kts | 275° |
| 2026-05-08 11:44 | 42.69934 | 23.37878 | 2780 ft | 185 kts | 285° |
| 2026-05-08 11:44 | 42.70565 | 23.36456 | 3511 ft | 179 kts | 316° |
| 2026-05-08 11:44 | 42.71518 | 23.35327 | 3974 ft | 189 kts | 316° |
| 2026-05-08 11:44 | 42.72452 | 23.33962 | 4349 ft | 205 kts | 311° |
| 2026-05-08 11:45 | 42.73414 | 23.32430 | 4693 ft | 224 kts | 309° |
| 2026-05-08 11:45 | 42.74439 | 23.30698 | 5063 ft | 244 kts | 308° |
| 2026-05-08 11:45 | 42.75514 | 23.28820 | 5499 ft | 262 kts | 307° |
| 2026-05-08 11:45 | 42.76437 | 23.26593 | 5922 ft | 279 kts | 284° |
| 2026-05-08 11:46 | 42.76446 | 23.23953 | 6571 ft | 283 kts | 251° |
| 2026-05-08 11:46 | 42.75455 | 23.21719 | 7341 ft | 279 kts | 220° |
| 2026-05-08 11:46 | 42.73812 | 23.20484 | 8088 ft | 276 kts | 195° |
| 2026-05-08 11:46 | 42.71959 | 23.19731 | 8850 ft | 279 kts | 194° |
| 2026-05-08 11:47 | 42.70103 | 23.18930 | 9593 ft | 282 kts | 195° |
| 2026-05-08 11:47 | 42.68248 | 23.18111 | 10330 ft | 284 kts | 195° |
| 2026-05-08 11:47 | 42.66335 | 23.17263 | 10803 ft | 296 kts | 195° |
| 2026-05-08 11:47 | 42.64334 | 23.16375 | 11163 ft | 310 kts | 195° |
| 2026-05-08 11:48 | 42.62244 | 23.15426 | 11777 ft | 316 kts | 199° |
| 2026-05-08 11:48 | 42.60324 | 23.13942 | 12451 ft | 322 kts | 214° |
| 2026-05-08 11:48 | 42.58602 | 23.12067 | 13136 ft | 324 kts | 217° |
| 2026-05-08 11:48 | 42.56860 | 23.10095 | 13790 ft | 326 kts | 217° |
| 2026-05-08 11:49 | 42.55104 | 23.08140 | 14429 ft | 328 kts | 216° |
| 2026-05-08 11:49 | 42.53336 | 23.06216 | 15029 ft | 331 kts | 216° |
| 2026-05-08 11:49 | 42.51532 | 23.04282 | 15621 ft | 334 kts | 216° |
| 2026-05-08 11:49 | 42.49679 | 23.02314 | 16197 ft | 336 kts | 216° |
| 2026-05-08 11:50 | 42.47834 | 23.00366 | 16764 ft | 339 kts | 216° |
| 2026-05-08 11:50 | 42.45977 | 22.98415 | 17323 ft | 341 kts | 216° |
| 2026-05-08 11:50 | 42.44090 | 22.96436 | 17858 ft | 344 kts | 216° |
| 2026-05-08 11:50 | 42.42203 | 22.94461 | 18375 ft | 347 kts | 216° |
| 2026-05-08 11:51 | 42.40298 | 22.92469 | 18918 ft | 348 kts | 217° |
| 2026-05-08 11:51 | 42.38388 | 22.90475 | 19453 ft | 350 kts | 217° |
| 2026-05-08 11:51 | 42.36442 | 22.88444 | 19955 ft | 352 kts | 217° |
| 2026-05-08 11:51 | 42.34521 | 22.86440 | 20456 ft | 353 kts | 217° |
| 2026-05-08 11:52 | 42.32600 | 22.84437 | 21174 ft | 348 kts | 218° |
| 2026-05-08 11:52 | 42.30674 | 22.82432 | 21770 ft | 347 kts | 218° |
| 2026-05-08 11:52 | 42.28783 | 22.80465 | 22244 ft | 348 kts | 218° |
| 2026-05-08 11:52 | 42.26850 | 22.78454 | 22694 ft | 350 kts | 218° |
| 2026-05-08 11:53 | 42.24929 | 22.76456 | 23118 ft | 352 kts | 218° |
| 2026-05-08 11:53 | 42.22990 | 22.74441 | 23548 ft | 354 kts | 218° |
| 2026-05-08 11:53 | 42.21032 | 22.72407 | 23964 ft | 357 kts | 218° |
| 2026-05-08 11:53 | 42.19054 | 22.70354 | 24393 ft | 359 kts | 219° |
| 2026-05-08 11:54 | 42.17078 | 22.68308 | 24805 ft | 361 kts | 219° |
| 2026-05-08 11:54 | 42.15097 | 22.66257 | 25220 ft | 362 kts | 219° |
| 2026-05-08 11:54 | 42.13089 | 22.64181 | 25577 ft | 365 kts | 218° |
| 2026-05-08 11:54 | 42.11021 | 22.62199 | 25938 ft | 368 kts | 213° |
| 2026-05-08 11:55 | 42.08745 | 22.60538 | 26335 ft | 371 kts | 206° |
| 2026-05-08 11:55 | 42.06341 | 22.59284 | 26697 ft | 374 kts | 200° |
| 2026-05-08 11:55 | 42.03838 | 22.58255 | 27066 ft | 376 kts | 199° |
| 2026-05-08 11:55 | 42.01355 | 22.57272 | 27419 ft | 378 kts | 198° |
| 2026-05-08 11:56 | 41.98834 | 22.56280 | 27755 ft | 380 kts | 199° |
| 2026-05-08 11:56 | 41.96283 | 22.55275 | 28094 ft | 382 kts | 199° |
| 2026-05-08 11:56 | 41.93735 | 22.54268 | 28433 ft | 384 kts | 198° |
| 2026-05-08 11:56 | 41.91208 | 22.53094 | 28741 ft | 384 kts | 209° |
| 2026-05-08 11:57 | 41.89081 | 22.50946 | 29034 ft | 383 kts | 224° |
| 2026-05-08 11:57 | 41.87100 | 22.48483 | 29395 ft | 385 kts | 223° |
| 2026-05-08 11:57 | 41.85104 | 22.46075 | 29697 ft | 387 kts | 222° |
| 2026-05-08 11:57 | 41.83099 | 22.43695 | 30009 ft | 389 kts | 222° |
| 2026-05-08 11:58 | 41.81068 | 22.41300 | 30315 ft | 391 kts | 222° |
| 2026-05-08 11:58 | 41.79006 | 22.38881 | 30685 ft | 391 kts | 222° |
| 2026-05-08 11:58 | 41.76953 | 22.36482 | 31091 ft | 391 kts | 222° |
| 2026-05-08 11:59 | 41.72861 | 22.31712 | 31909 ft | 389 kts | 221° |
| 2026-05-08 11:59 | 41.70829 | 22.29350 | 32319 ft | 387 kts | 221° |
| 2026-05-08 11:59 | 41.68802 | 22.26997 | 32736 ft | 386 kts | 221° |
| 2026-05-08 11:59 | 41.66790 | 22.24662 | 33134 ft | 385 kts | 221° |
| 2026-05-08 12:00 | 41.64749 | 22.22298 | 33508 ft | 384 kts | 221° |
| 2026-05-08 12:00 | 41.62740 | 22.19971 | 33870 ft | 384 kts | 221° |
| 2026-05-08 12:00 | 41.60746 | 22.17665 | 34205 ft | 383 kts | 221° |
| 2026-05-08 12:00 | 41.58722 | 22.15328 | 34548 ft | 382 kts | 222° |
| 2026-05-08 12:01 | 41.56744 | 22.13045 | 34905 ft | 380 kts | 222° |
| 2026-05-08 12:01 | 41.54746 | 22.10742 | 35274 ft | 378 kts | 222° |
| 2026-05-08 12:01 | 41.52761 | 22.08453 | 35584 ft | 377 kts | 222° |
| 2026-05-08 12:01 | 41.50773 | 22.06164 | 35842 ft | 377 kts | 222° |
| 2026-05-08 12:02 | 41.48796 | 22.03888 | 36045 ft | 378 kts | 222° |
| 2026-05-08 12:02 | 41.46800 | 22.01592 | 36059 ft | 379 kts | 222° |
| 2026-05-08 12:02 | 41.42807 | 21.97006 | 36067 ft | 380 kts | 222° |
| 2026-05-08 12:03 | 41.38823 | 21.92438 | 36056 ft | 379 kts | 222° |
| 2026-05-08 12:03 | 41.34840 | 21.87879 | 36076 ft | 379 kts | 222° |
| 2026-05-08 12:04 | 41.30824 | 21.83293 | 36065 ft | 379 kts | 223° |
| 2026-05-08 12:04 | 41.26860 | 21.78773 | 36064 ft | 377 kts | 223° |
| 2026-05-08 12:05 | 41.22857 | 21.74214 | 36068 ft | 378 kts | 223° |
| 2026-05-08 12:05 | 41.18889 | 21.69703 | 36062 ft | 378 kts | 223° |
| 2026-05-08 12:06 | 41.14908 | 21.65186 | 36064 ft | 378 kts | 222° |
| 2026-05-08 12:06 | 41.10904 | 21.60648 | 36164 ft | 378 kts | 223° |
| 2026-05-08 12:07 | 41.08898 | 21.58381 | 35805 ft | 378 kts | 223° |
| 2026-05-08 12:07 | 41.06900 | 21.56122 | 35946 ft | 379 kts | 223° |
| 2026-05-08 12:07 | 41.04899 | 21.53861 | 36162 ft | 378 kts | 223° |
| 2026-05-08 12:07 | 41.02915 | 21.51623 | 35828 ft | 377 kts | 223° |
| 2026-05-08 12:08 | 41.00914 | 21.49365 | 35969 ft | 378 kts | 223° |
| 2026-05-08 12:08 | 40.98914 | 21.47111 | 36033 ft | 379 kts | 223° |
| 2026-05-08 12:08 | 40.94891 | 21.42585 | 36053 ft | 378 kts | 223° |
| 2026-05-08 12:09 | 40.90906 | 21.38106 | 36060 ft | 379 kts | 223° |
| 2026-05-08 12:09 | 40.86870 | 21.33579 | 36058 ft | 379 kts | 222° |
| 2026-05-08 12:10 | 40.82877 | 21.29108 | 36058 ft | 378 kts | 222° |
| 2026-05-08 12:10 | 40.78866 | 21.24622 | 36045 ft | 378 kts | 223° |
| 2026-05-08 12:11 | 40.74848 | 21.20136 | 36048 ft | 378 kts | 222° |
| 2026-05-08 12:11 | 40.70846 | 21.15678 | 36055 ft | 377 kts | 222° |
| 2026-05-08 12:12 | 40.66846 | 21.11228 | 36069 ft | 378 kts | 223° |
| 2026-05-08 12:12 | 40.62830 | 21.06764 | 36045 ft | 378 kts | 222° |
| 2026-05-08 12:13 | 40.58814 | 21.02312 | 36060 ft | 377 kts | 222° |
| 2026-05-08 12:13 | 40.54807 | 20.97877 | 36051 ft | 377 kts | 223° |
| 2026-05-08 12:14 | 40.50807 | 20.93457 | 36054 ft | 376 kts | 223° |
| 2026-05-08 12:14 | 40.46832 | 20.89071 | 36055 ft | 376 kts | 223° |
| 2026-05-08 12:15 | 40.42838 | 20.84669 | 36055 ft | 376 kts | 223° |
| 2026-05-08 12:15 | 40.38824 | 20.80254 | 36061 ft | 376 kts | 223° |
| 2026-05-08 12:16 | 40.34816 | 20.75853 | 36052 ft | 375 kts | 223° |
| 2026-05-08 12:16 | 40.30816 | 20.71465 | 36062 ft | 375 kts | 223° |
| 2026-05-08 12:17 | 40.26821 | 20.67091 | 36060 ft | 374 kts | 223° |
| 2026-05-08 12:17 | 40.22828 | 20.62726 | 36055 ft | 375 kts | 223° |
| 2026-05-08 12:18 | 40.20836 | 20.60552 | 36199 ft | 374 kts | 223° |
| 2026-05-08 12:18 | 40.18864 | 20.58401 | 36122 ft | 372 kts | 223° |
| 2026-05-08 12:18 | 40.14868 | 20.54048 | 36067 ft | 372 kts | 223° |
| 2026-05-08 12:19 | 40.10909 | 20.49740 | 36060 ft | 372 kts | 223° |
| 2026-05-08 12:19 | 40.06930 | 20.45414 | 36053 ft | 372 kts | 224° |
| 2026-05-08 12:20 | 40.02948 | 20.41096 | 36048 ft | 372 kts | 223° |
| 2026-05-08 12:20 | 39.98985 | 20.36808 | 36048 ft | 372 kts | 224° |
| 2026-05-08 12:21 | 39.94991 | 20.32493 | 36046 ft | 371 kts | 223° |
| 2026-05-08 12:21 | 39.91025 | 20.28206 | 36050 ft | 372 kts | 223° |
| 2026-05-08 12:22 | 39.87039 | 20.23913 | 36041 ft | 371 kts | 223° |
| 2026-05-08 12:22 | 39.83087 | 20.19661 | 36042 ft | 371 kts | 224° |
| 2026-05-08 12:23 | 39.79096 | 20.15370 | 36042 ft | 371 kts | 224° |
| 2026-05-08 12:23 | 39.75136 | 20.11125 | 36036 ft | 370 kts | 224° |
| 2026-05-08 12:24 | 39.71169 | 20.06869 | 36028 ft | 370 kts | 224° |
| 2026-05-08 12:24 | 39.67200 | 20.02625 | 36029 ft | 370 kts | 224° |
| 2026-05-08 12:25 | 39.63249 | 19.98406 | 36018 ft | 370 kts | 224° |
| 2026-05-08 12:25 | 39.59275 | 19.94165 | 36013 ft | 369 kts | 224° |
| 2026-05-08 12:26 | 39.55324 | 19.89959 | 36008 ft | 368 kts | 224° |
| 2026-05-08 12:26 | 39.51394 | 19.85778 | 36005 ft | 368 kts | 225° |
| 2026-05-08 12:27 | 39.47429 | 19.81570 | 36000 ft | 367 kts | 225° |
| 2026-05-08 12:27 | 39.43741 | 19.77135 | 36000 ft | 362 kts | 233° |
| 2026-05-08 12:28 | 39.40867 | 19.71852 | 35996 ft | 357 kts | 244° |
| 2026-05-08 12:28 | 39.38936 | 19.65989 | 35983 ft | 356 kts | 254° |
| 2026-05-08 12:29 | 39.37860 | 19.59736 | 35984 ft | 356 kts | 259° |
| 2026-05-08 12:29 | 39.36967 | 19.53501 | 35984 ft | 356 kts | 260° |
| 2026-05-08 12:30 | 39.36079 | 19.47217 | 35975 ft | 356 kts | 260° |
| 2026-05-08 12:30 | 39.35192 | 19.40958 | 35733 ft | 356 kts | 259° |
| 2026-05-08 12:31 | 39.34742 | 19.37777 | 35888 ft | 357 kts | 260° |
| 2026-05-08 12:31 | 39.34295 | 19.34642 | 36151 ft | 358 kts | 259° |
| 2026-05-08 12:31 | 39.33850 | 19.31499 | 35847 ft | 356 kts | 259° |
| 2026-05-08 12:31 | 39.33403 | 19.28362 | 35936 ft | 357 kts | 259° |
| 2026-05-08 12:32 | 39.32501 | 19.22060 | 35943 ft | 358 kts | 259° |
| 2026-05-08 12:32 | 39.31604 | 19.15793 | 35969 ft | 358 kts | 259° |
| 2026-05-08 12:33 | 39.30699 | 19.09515 | 35974 ft | 356 kts | 259° |
| 2026-05-08 12:33 | 39.29791 | 19.03252 | 35938 ft | 356 kts | 259° |
| 2026-05-08 12:34 | 39.28876 | 18.96955 | 35950 ft | 357 kts | 259° |
| 2026-05-08 12:34 | 39.27957 | 18.90673 | 35943 ft | 357 kts | 259° |
| 2026-05-08 12:35 | 39.27034 | 18.84405 | 35949 ft | 358 kts | 259° |
| 2026-05-08 12:35 | 39.26106 | 18.78115 | 35929 ft | 356 kts | 259° |
| 2026-05-08 12:36 | 39.25182 | 18.71870 | 35951 ft | 356 kts | 259° |
| 2026-05-08 12:36 | 39.24250 | 18.65596 | 35926 ft | 356 kts | 260° |
| 2026-05-08 12:37 | 39.23782 | 18.62445 | 35693 ft | 356 kts | 259° |
| 2026-05-08 12:37 | 39.23323 | 18.59362 | 35467 ft | 353 kts | 259° |
| 2026-05-08 12:37 | 39.22860 | 18.56274 | 35235 ft | 350 kts | 259° |
| 2026-05-08 12:37 | 39.22401 | 18.53222 | 35013 ft | 348 kts | 260° |
| 2026-05-08 12:38 | 39.21942 | 18.50170 | 34762 ft | 344 kts | 260° |
| 2026-05-08 12:38 | 39.21491 | 18.47165 | 34424 ft | 343 kts | 260° |
| 2026-05-08 12:38 | 39.21036 | 18.44140 | 33993 ft | 344 kts | 260° |
| 2026-05-08 12:38 | 39.20582 | 18.41135 | 33452 ft | 344 kts | 260° |
| 2026-05-08 12:39 | 39.20128 | 18.38123 | 32879 ft | 344 kts | 260° |
| 2026-05-08 12:39 | 39.19674 | 18.35137 | 32295 ft | 344 kts | 260° |
| 2026-05-08 12:39 | 39.19230 | 18.32199 | 31723 ft | 345 kts | 259° |
| 2026-05-08 12:39 | 39.18769 | 18.29168 | 31119 ft | 346 kts | 259° |
| 2026-05-08 12:40 | 39.18307 | 18.26133 | 30502 ft | 346 kts | 259° |
| 2026-05-08 12:40 | 39.17848 | 18.23116 | 29877 ft | 347 kts | 259° |
| 2026-05-08 12:40 | 39.17382 | 18.20084 | 29210 ft | 347 kts | 259° |
| 2026-05-08 12:40 | 39.16914 | 18.17047 | 28547 ft | 347 kts | 259° |
| 2026-05-08 12:41 | 39.16454 | 18.14026 | 27890 ft | 347 kts | 259° |
| 2026-05-08 12:41 | 39.15986 | 18.10983 | 27374 ft | 343 kts | 259° |
| 2026-05-08 12:41 | 39.15529 | 18.08011 | 26935 ft | 339 kts | 259° |
| 2026-05-08 12:41 | 39.15072 | 18.05038 | 26488 ft | 334 kts | 259° |
| 2026-05-08 12:42 | 39.14628 | 18.02158 | 26052 ft | 329 kts | 259° |
| 2026-05-08 12:42 | 39.14182 | 17.99296 | 25615 ft | 325 kts | 260° |
| 2026-05-08 12:42 | 39.13747 | 17.96476 | 25182 ft | 321 kts | 259° |
| 2026-05-08 12:42 | 39.13316 | 17.93675 | 24752 ft | 317 kts | 260° |
| 2026-05-08 12:43 | 39.12882 | 17.90902 | 24322 ft | 314 kts | 260° |
| 2026-05-08 12:43 | 39.12460 | 17.88180 | 23897 ft | 310 kts | 260° |
| 2026-05-08 12:43 | 39.12034 | 17.85462 | 23480 ft | 307 kts | 260° |
| 2026-05-08 12:43 | 39.11618 | 17.82788 | 23077 ft | 304 kts | 260° |
| 2026-05-08 12:44 | 39.11206 | 17.80145 | 22690 ft | 302 kts | 260° |
| 2026-05-08 12:44 | 39.10794 | 17.77536 | 22297 ft | 299 kts | 259° |
| 2026-05-08 12:44 | 39.10378 | 17.74926 | 21901 ft | 297 kts | 260° |
| 2026-05-08 12:44 | 39.09965 | 17.72337 | 21511 ft | 294 kts | 259° |
| 2026-05-08 12:45 | 39.09557 | 17.69763 | 21118 ft | 292 kts | 259° |
| 2026-05-08 12:45 | 39.09154 | 17.67229 | 20742 ft | 290 kts | 259° |
| 2026-05-08 12:45 | 39.08754 | 17.64717 | 20369 ft | 288 kts | 259° |
| 2026-05-08 12:45 | 39.08350 | 17.62199 | 20003 ft | 286 kts | 259° |
| 2026-05-08 12:46 | 39.07956 | 17.59726 | 19645 ft | 284 kts | 259° |
| 2026-05-08 12:46 | 39.07560 | 17.57245 | 19284 ft | 282 kts | 259° |
| 2026-05-08 12:46 | 39.07163 | 17.54784 | 18935 ft | 280 kts | 258° |
| 2026-05-08 12:46 | 39.06773 | 17.52367 | 18596 ft | 280 kts | 259° |
| 2026-05-08 12:47 | 39.06379 | 17.49910 | 18262 ft | 280 kts | 259° |
| 2026-05-08 12:47 | 39.05986 | 17.47457 | 17934 ft | 280 kts | 259° |
| 2026-05-08 12:47 | 39.05593 | 17.45030 | 17603 ft | 279 kts | 259° |
| 2026-05-08 12:47 | 39.05198 | 17.42590 | 17261 ft | 278 kts | 259° |
| 2026-05-08 12:48 | 39.04807 | 17.40174 | 16931 ft | 277 kts | 259° |
| 2026-05-08 12:48 | 39.04415 | 17.37755 | 16617 ft | 276 kts | 259° |
| 2026-05-08 12:48 | 39.04026 | 17.35356 | 16302 ft | 276 kts | 259° |
| 2026-05-08 12:48 | 39.03631 | 17.32927 | 15989 ft | 274 kts | 258° |
| 2026-05-08 12:49 | 39.03243 | 17.30543 | 15637 ft | 273 kts | 258° |
| 2026-05-08 12:49 | 39.02852 | 17.28140 | 15282 ft | 273 kts | 258° |
| 2026-05-08 12:49 | 39.02462 | 17.25759 | 14902 ft | 273 kts | 258° |
| 2026-05-08 12:49 | 39.02075 | 17.23372 | 14522 ft | 272 kts | 258° |
| 2026-05-08 12:50 | 39.01659 | 17.21024 | 14127 ft | 272 kts | 256° |
| 2026-05-08 12:50 | 39.01162 | 17.18638 | 13623 ft | 276 kts | 256° |
| 2026-05-08 12:50 | 39.00660 | 17.16269 | 13167 ft | 278 kts | 256° |
| 2026-05-08 12:50 | 39.00151 | 17.13857 | 12734 ft | 278 kts | 256° |
| 2026-05-08 12:51 | 38.99651 | 17.11476 | 12288 ft | 279 kts | 255° |
| 2026-05-08 12:51 | 38.98644 | 17.06667 | 11429 ft | 280 kts | 255° |
| 2026-05-08 12:51 | 38.98135 | 17.04228 | 10977 ft | 280 kts | 256° |
| 2026-05-08 12:52 | 38.97631 | 17.01823 | 10547 ft | 280 kts | 255° |
| 2026-05-08 12:52 | 38.96637 | 16.97060 | 9995 ft | 267 kts | 255° |
| 2026-05-08 12:52 | 38.96164 | 16.94795 | 9751 ft | 261 kts | 255° |
| 2026-05-08 12:53 | 38.95700 | 16.92582 | 9362 ft | 259 kts | 255° |
| 2026-05-08 12:53 | 38.95231 | 16.90344 | 8990 ft | 258 kts | 255° |
| 2026-05-08 12:53 | 38.94770 | 16.88146 | 8615 ft | 257 kts | 256° |
| 2026-05-08 12:53 | 38.94305 | 16.85925 | 8235 ft | 257 kts | 256° |
| 2026-05-08 12:54 | 38.93840 | 16.83712 | 7847 ft | 256 kts | 256° |
| 2026-05-08 12:54 | 38.93382 | 16.81529 | 7467 ft | 255 kts | 256° |
| 2026-05-08 12:54 | 38.92917 | 16.79318 | 7082 ft | 255 kts | 255° |
| 2026-05-08 12:54 | 38.92455 | 16.77126 | 6712 ft | 254 kts | 255° |
| 2026-05-08 12:55 | 38.92001 | 16.74975 | 6357 ft | 252 kts | 255° |
| 2026-05-08 12:55 | 38.91541 | 16.72794 | 5997 ft | 251 kts | 255° |
| 2026-05-08 12:55 | 38.91088 | 16.70650 | 5653 ft | 250 kts | 255° |
| 2026-05-08 12:55 | 38.90633 | 16.68493 | 5309 ft | 248 kts | 255° |
| 2026-05-08 12:56 | 38.90180 | 16.66355 | 4976 ft | 246 kts | 255° |
| 2026-05-08 12:56 | 38.89737 | 16.64268 | 4648 ft | 245 kts | 256° |
| 2026-05-08 12:56 | 38.89287 | 16.62151 | 4317 ft | 244 kts | 256° |
| 2026-05-08 12:56 | 38.88843 | 16.60061 | 3992 ft | 245 kts | 256° |
| 2026-05-08 12:57 | 38.88388 | 16.57917 | 3775 ft | 250 kts | 255° |
| 2026-05-08 12:57 | 38.87933 | 16.55780 | 3648 ft | 248 kts | 256° |
| 2026-05-08 12:57 | 38.87549 | 16.53685 | 3552 ft | 235 kts | 261° |
| 2026-05-08 12:57 | 38.87416 | 16.51645 | 3512 ft | 220 kts | 271° |
| 2026-05-08 12:58 | 38.87542 | 16.49768 | 3483 ft | 205 kts | 278° |
| 2026-05-08 12:58 | 38.87767 | 16.48007 | 3359 ft | 198 kts | 279° |
| 2026-05-08 12:58 | 38.87996 | 16.46264 | 3104 ft | 196 kts | 279° |
| 2026-05-08 12:58 | 38.88206 | 16.44543 | 2840 ft | 196 kts | 278° |
| 2026-05-08 12:59 | 38.88407 | 16.42805 | 2597 ft | 195 kts | 278° |
| 2026-05-08 12:59 | 38.88596 | 16.41131 | 2430 ft | 185 kts | 278° |
| 2026-05-08 12:59 | 38.88777 | 16.39528 | 2147 ft | 176 kts | 279° |
| 2026-05-08 12:59 | 38.88947 | 16.38030 | 1878 ft | 164 kts | 279° |
| 2026-05-08 13:00 | 38.89103 | 16.36661 | 1672 ft | 149 kts | 279° |
| 2026-05-08 13:00 | 38.89249 | 16.35392 | 1467 ft | 141 kts | 279° |
| 2026-05-08 13:00 | 38.89387 | 16.34190 | 1285 ft | 131 kts | 278° |
| 2026-05-08 13:00 | 38.89518 | 16.33045 | 1125 ft | 129 kts | 278° |
| 2026-05-08 13:01 | 38.89649 | 16.31905 | 965 ft | 129 kts | 278° |
| 2026-05-08 13:01 | 38.89786 | 16.30767 | 854 ft | 128 kts | 277° |
| 2026-05-08 13:01 | 38.89917 | 16.29644 | 717 ft | 128 kts | 277° |
| 2026-05-08 13:01 | 38.90041 | 16.28510 | 533 ft | 127 kts | 277° |
| 2026-05-08 13:02 | 38.90172 | 16.27386 | 337 ft | 127 kts | 277° |
| 2026-05-08 13:02 | 38.90303 | 16.26269 | 165 ft | 126 kts | 277° |
| 2026-05-08 13:02 | 38.90429 | 16.25178 | 60 ft | 119 kts | 277° |
| 2026-05-08 13:02 | 38.90529 | 16.24315 | 49 ft | 71 kts | 278° |
| 2026-05-08 13:03 | 38.90585 | 16.23839 | 45 ft | 47 kts | 277° |
| 2026-05-08 13:03 | 38.90672 | 16.23577 | 42 ft | 25 kts | 313° |
| 2026-05-08 13:03 | 38.90790 | 16.23484 | 44 ft | 17 kts | 14° |
| 2026-05-08 13:03 | 38.90836 | 16.23603 | 45 ft | 16 kts | 97° |
| 2026-05-08 13:04 | 38.90820 | 16.23735 | 46 ft | 14 kts | 98° |
| 2026-05-08 13:04 | 38.90805 | 16.23864 | 47 ft | 14 kts | 99° |
| 2026-05-08 13:04 | 38.90790 | 16.23990 | 48 ft | 13 kts | 97° |
| 2026-05-08 13:04 | 38.90777 | 16.24107 | 50 ft | 12 kts | 98° |
| 2026-05-08 13:05 | 38.90763 | 16.24218 | 52 ft | 12 kts | 98° |
| 2026-05-08 13:05 | 38.90751 | 16.24328 | 53 ft | 12 kts | 98° |
| 2026-05-08 13:05 | 38.90738 | 16.24435 | 54 ft | 12 kts | 98° |
| 2026-05-08 13:05 | 38.90727 | 16.24538 | 56 ft | 10 kts | 98° |
| 2026-05-08 13:06 | 38.90749 | 16.24582 | 57 ft | 5 kts | 4° |
| 2026-05-08 13:06 | 38.90789 | 16.24585 | 58 ft | 5 kts | 6° |
| 2026-05-08 13:06 | 38.90814 | 16.24589 | 59 ft | 0 kts | 7° |
| 2026-05-08 13:06 | 38.90850 | 16.24595 | 59 ft | 11 kts | 11° |
| 2026-05-08 13:07 | 38.90859 | 16.24613 | 60 ft | 0 kts | 95° |